Haldimand, Canada
Current Conditions -  °F | °C
As of 5:00 AM on Sunday 25 Jan 2015 (Local Time) from CYHM Reporting Station
Few Clouds Few Clouds  
Wind Chill:   Ceiling: Unl
Heat Index: 19°   Visibility: 15mi
Dew Point: 12°   Wind: 13mph
Humidity: 74%   Direction: 320°NW
Pressure: 29.74"   Gusts: 20mph
Location:  42.99°N, 79.83°W
Report Text: CYHM 251000Z 32011G17KT 15SM FEW023 M07/M11 A2974 RMK SC1 SLP084
Loading
Personal Weather Stations






























Interactive Weather Map New forecast layout! Learn more

10-Day Weather Forecast

Advertisements
Track Severe Weather on mobile